LEMD

Madrid Barajas International Airport

Code ICAO LEMD
Code IATA MAD
Nom Madrid Barajas International Airport
Emplacement Madrid, Madrid, ES
Élévation 2001 pieds / 609.9 mètres
Latitude 40.49360000
Longitude -3.56676000
METAR LEMD 240630Z VRB01KT 9999 BKN050 01/00 Q1026 NOSIG
Informations extras Afficher cartes et CFS
Afficher NOTAMS
Piste Longueur Largeur Surface Élévation
14L 11483 ft 197 ft ASP 1942 ft
14R 13084 ft 197 ft ASP 1995 ft
18L 11483 ft 197 ft ASP 1919 ft
18R 13711 ft 197 ft ASP 1998 ft
32R 11483 ft 197 ft ASP 1876 ft
32L 13084 ft 197 ft ASP 1909 ft
36R 11483 ft 197 ft ASP 1942 ft
36L 13711 ft 197 ft ASP 1985 ft